sensor_id;sensor_type;location;lat;lon;timestamp;temperature;humidity
15328;DHT22;7764;51.430;6.840;2023-03-01T00:01:13;1.20;99.90
15328;DHT22;7764;51.430;6.840;2023-03-01T00:03:40;1.20;99.90
15328;DHT22;7764;51.430;6.840;2023-03-01T00:06:07;1.20;99.90
15328;DHT22;7764;51.430;6.840;2023-03-01T00:08:34;1.20;99.90
15328;DHT22;7764;51.430;6.840;2023-03-01T00:11:03;1.20;99.90
15328;DHT22;7764;51.430;6.840;2023-03-01T00:13:32;1.20;99.90
15328;DHT22;7764;51.430;6.840;2023-03-01T00:16:01;1.20;99.90
15328;DHT22;7764;51.430;6.840;2023-03-01T00:18:28;1.20;99.90
15328;DHT22;7764;51.430;6.840;2023-03-01T00:20:56;1.20;99.90
15328;DHT22;7764;51.430;6.840;2023-03-01T00:23:23;1.20;99.90
15328;DHT22;7764;51.430;6.840;2023-03-01T00:25:50;1.20;99.90
15328;DHT22;7764;51.430;6.840;2023-03-01T00:28:18;1.20;99.90
15328;DHT22;7764;51.430;6.840;2023-03-01T00:30:47;1.20;99.90
15328;DHT22;7764;51.430;6.840;2023-03-01T00:33:14;1.20;99.90
15328;DHT22;7764;51.430;6.840;2023-03-01T00:35:41;1.10;99.90
15328;DHT22;7764;51.430;6.840;2023-03-01T00:38:08;1.10;99.90
15328;DHT22;7764;51.430;6.840;2023-03-01T00:40:35;1.10;99.90
15328;DHT22;7764;51.430;6.840;2023-03-01T00:43:03;1.00;99.90
15328;DHT22;7764;51.430;6.840;2023-03-01T00:45:30;1.00;99.90
15328;DHT22;7764;51.430;6.840;2023-03-01T00:47:58;1.00;99.90
15328;DHT22;7764;51.430;6.840;2023-03-01T00:50:25;1.00;99.90
15328;DHT22;7764;51.430;6.840;2023-03-01T00:52:53;1.00;99.90
15328;DHT22;7764;51.430;6.840;2023-03-01T00:55:20;0.90;99.90
15328;DHT22;7764;51.430;6.840;2023-03-01T00:57:47;0.90;99.90
15328;DHT22;7764;51.430;6.840;2023-03-01T01:00:15;0.80;99.90
15328;DHT22;7764;51.430;6.840;2023-03-01T01:02:41;0.80;99.90
15328;DHT22;7764;51.430;6.840;2023-03-01T01:05:10;0.80;99.90
15328;DHT22;7764;51.430;6.840;2023-03-01T01:07:37;0.80;99.90
15328;DHT22;7764;51.430;6.840;2023-03-01T01:10:06;0.70;99.90
15328;DHT22;7764;51.430;6.840;2023-03-01T01:12:33;0.70;99.90
15328;DHT22;7764;51.430;6.840;2023-03-01T01:14:59;0.70;99.90
15328;DHT22;7764;51.430;6.840;2023-03-01T01:17:26;0.60;99.90
15328;DHT22;7764;51.430;6.840;2023-03-01T01:19:53;0.50;99.90
15328;DHT22;7764;51.430;6.840;2023-03-01T01:22:21;0.40;99.90
15328;DHT22;7764;51.430;6.840;2023-03-01T01:24:48;0.50;99.90
15328;DHT22;7764;51.430;6.840;2023-03-01T01:27:15;0.40;99.90
15328;DHT22;7764;51.430;6.840;2023-03-01T01:29:42;0.40;99.90
15328;DHT22;7764;51.430;6.840;2023-03-01T01:32:09;0.40;99.90
15328;DHT22;7764;51.430;6.840;2023-03-01T01:34:35;0.30;99.90
15328;DHT22;7764;51.430;6.840;2023-03-01T01:37:02;0.30;99.90
15328;DHT22;7764;51.430;6.840;2023-03-01T01:39:35;0.30;99.90
15328;DHT22;7764;51.430;6.840;2023-03-01T01:42:02;0.30;99.90
15328;DHT22;7764;51.430;6.840;2023-03-01T01:44:29;0.40;99.90
15328;DHT22;7764;51.430;6.840;2023-03-01T01:46:58;0.30;99.90
15328;DHT22;7764;51.430;6.840;2023-03-01T01:49:30;0.30;99.90
15328;DHT22;7764;51.430;6.840;2023-03-01T01:52:04;0.30;99.90
15328;DHT22;7764;51.430;6.840;2023-03-01T01:54:40;0.20;99.90
15328;DHT22;7764;51.430;6.840;2023-03-01T01:57:11;0.20;99.90
15328;DHT22;7764;51.430;6.840;2023-03-01T01:59:42;0.20;99.90
15328;DHT22;7764;51.430;6.840;2023-03-01T02:02:10;0.10;99.90
15328;DHT22;7764;51.430;6.840;2023-03-01T02:04:38;0.10;99.90
15328;DHT22;7764;51.430;6.840;2023-03-01T02:07:10;0.10;99.90
15328;DHT22;7764;51.430;6.840;2023-03-01T02:09:43;0.10;99.90
15328;DHT22;7764;51.430;6.840;2023-03-01T02:12:13;0.10;99.90
15328;DHT22;7764;51.430;6.840;2023-03-01T02:14:40;0.10;99.90
15328;DHT22;7764;51.430;6.840;2023-03-01T02:17:07;0.10;99.90
15328;DHT22;7764;51.430;6.840;2023-03-01T02:19:44;0.10;99.90
15328;DHT22;7764;51.430;6.840;2023-03-01T02:22:20;0.20;99.90
15328;DHT22;7764;51.430;6.840;2023-03-01T02:25:00;0.20;99.90
15328;DHT22;7764;51.430;6.840;2023-03-01T02:27:35;0.20;99.90
15328;DHT22;7764;51.430;6.840;2023-03-01T02:30:08;0.20;99.90
15328;DHT22;7764;51.430;6.840;2023-03-01T02:32:38;0.30;99.90
15328;DHT22;7764;51.430;6.840;2023-03-01T02:35:09;0.30;99.90
15328;DHT22;7764;51.430;6.840;2023-03-01T02:37:37;0.30;99.90
15328;DHT22;7764;51.430;6.840;2023-03-01T02:40:07;0.30;99.90
15328;DHT22;7764;51.430;6.840;2023-03-01T02:42:40;0.30;99.90
15328;DHT22;7764;51.430;6.840;2023-03-01T02:45:12;0.30;99.90
15328;DHT22;7764;51.430;6.840;2023-03-01T02:47:39;0.20;99.90
15328;DHT22;7764;51.430;6.840;2023-03-01T02:50:16;0.20;99.90
15328;DHT22;7764;51.430;6.840;2023-03-01T02:52:53;0.20;99.90
15328;DHT22;7764;51.430;6.840;2023-03-01T02:55:22;0.20;99.90
15328;DHT22;7764;51.430;6.840;2023-03-01T02:57:49;0.20;99.90
15328;DHT22;7764;51.430;6.840;2023-03-01T03:00:20;0.10;99.90
15328;DHT22;7764;51.430;6.840;2023-03-01T03:02:49;0.00;99.90
15328;DHT22;7764;51.430;6.840;2023-03-01T03:05:19;0.00;99.90
15328;DHT22;7764;51.430;6.840;2023-03-01T03:07:47;0.00;99.90
15328;DHT22;7764;51.430;6.840;2023-03-01T03:10:16;0.00;99.90
15328;DHT22;7764;51.430;6.840;2023-03-01T03:12:48;0.00;99.90
15328;DHT22;7764;51.430;6.840;2023-03-01T03:15:16;0.00;99.90
15328;DHT22;7764;51.430;6.840;2023-03-01T03:17:44;0.00;99.90
15328;DHT22;7764;51.430;6.840;2023-03-01T03:20:14;0.00;99.90
15328;DHT22;7764;51.430;6.840;2023-03-01T03:22:44;0.10;99.90
15328;DHT22;7764;51.430;6.840;2023-03-01T03:25:11;0.10;99.90
15328;DHT22;7764;51.430;6.840;2023-03-01T03:27:39;0.10;99.90
15328;DHT22;7764;51.430;6.840;2023-03-01T03:30:07;0.10;99.90
15328;DHT22;7764;51.430;6.840;2023-03-01T03:32:35;0.10;99.90
15328;DHT22;7764;51.430;6.840;2023-03-01T03:35:04;0.10;99.90
15328;DHT22;7764;51.430;6.840;2023-03-01T03:37:35;0.10;99.90
15328;DHT22;7764;51.430;6.840;2023-03-01T03:40:20;0.00;99.90
15328;DHT22;7764;51.430;6.840;2023-03-01T03:42:47;0.00;99.90
15328;DHT22;7764;51.430;6.840;2023-03-01T03:45:14;-0.10;99.90
15328;DHT22;7764;51.430;6.840;2023-03-01T03:47:41;-0.10;99.90
15328;DHT22;7764;51.430;6.840;2023-03-01T03:50:11;-0.10;99.90
15328;DHT22;7764;51.430;6.840;2023-03-01T03:52:38;-0.10;99.90
15328;DHT22;7764;51.430;6.840;2023-03-01T03:55:06;-0.10;99.90
15328;DHT22;7764;51.430;6.840;2023-03-01T03:57:36;-0.10;99.90
15328;DHT22;7764;51.430;6.840;2023-03-01T04:00:04;-0.20;99.90
15328;DHT22;7764;51.430;6.840;2023-03-01T04:02:38;-0.20;99.90
15328;DHT22;7764;51.430;6.840;2023-03-01T04:05:06;-0.20;99.90
15328;DHT22;7764;51.430;6.840;2023-03-01T04:07:34;-0.20;99.90
15328;DHT22;7764;51.430;6.840;2023-03-01T04:10:02;-0.20;99.90
15328;DHT22;7764;51.430;6.840;2023-03-01T04:12:29;-0.30;99.90
15328;DHT22;7764;51.430;6.840;2023-03-01T04:14:56;-0.30;99.90
15328;DHT22;7764;51.430;6.840;2023-03-01T04:17:26;-0.40;99.90
15328;DHT22;7764;51.430;6.840;2023-03-01T04:19:53;-0.40;99.90
15328;DHT22;7764;51.430;6.840;2023-03-01T04:22:20;-0.40;99.90
15328;DHT22;7764;51.430;6.840;2023-03-01T04:24:48;-0.40;99.90
15328;DHT22;7764;51.430;6.840;2023-03-01T04:27:15;-0.40;99.90
15328;DHT22;7764;51.430;6.840;2023-03-01T04:29:41;-0.40;99.90
15328;DHT22;7764;51.430;6.840;2023-03-01T04:32:08;-0.40;99.90
15328;DHT22;7764;51.430;6.840;2023-03-01T04:34:35;-0.40;99.90
15328;DHT22;7764;51.430;6.840;2023-03-01T04:37:02;-0.40;99.90
15328;DHT22;7764;51.430;6.840;2023-03-01T04:39:29;-0.40;99.90
15328;DHT22;7764;51.430;6.840;2023-03-01T04:41:57;-0.40;99.90
15328;DHT22;7764;51.430;6.840;2023-03-01T04:44:24;-0.40;99.90
15328;DHT22;7764;51.430;6.840;2023-03-01T04:46:50;-0.40;99.90
15328;DHT22;7764;51.430;6.840;2023-03-01T04:49:17;-0.40;99.90
15328;DHT22;7764;51.430;6.840;2023-03-01T04:51:44;-0.30;99.90
15328;DHT22;7764;51.430;6.840;2023-03-01T04:54:11;-0.30;99.90
15328;DHT22;7764;51.430;6.840;2023-03-01T04:56:38;-0.30;99.90
15328;DHT22;7764;51.430;6.840;2023-03-01T04:59:06;-0.20;99.90
15328;DHT22;7764;51.430;6.840;2023-03-01T05:01:35;-0.20;99.90
15328;DHT22;7764;51.430;6.840;2023-03-01T05:04:02;-0.20;99.90
15328;DHT22;7764;51.430;6.840;2023-03-01T05:06:31;-0.20;99.90
15328;DHT22;7764;51.430;6.840;2023-03-01T05:08:58;-0.20;99.90
15328;DHT22;7764;51.430;6.840;2023-03-01T05:11:25;-0.20;99.90
15328;DHT22;7764;51.430;6.840;2023-03-01T05:13:53;-0.20;99.90
15328;DHT22;7764;51.430;6.840;2023-03-01T05:16:22;-0.30;99.90
15328;DHT22;7764;51.430;6.840;2023-03-01T05:18:49;-0.30;99.90
15328;DHT22;7764;51.430;6.840;2023-03-01T05:21:17;-0.30;99.90
15328;DHT22;7764;51.430;6.840;2023-03-01T05:23:44;-0.30;99.90
15328;DHT22;7764;51.430;6.840;2023-03-01T05:26:13;-0.40;99.90
15328;DHT22;7764;51.430;6.840;2023-03-01T05:28:40;-0.40;99.90
15328;DHT22;7764;51.430;6.840;2023-03-01T05:31:07;-0.40;99.90
15328;DHT22;7764;51.430;6.840;2023-03-01T05:33:37;-0.40;99.90
15328;DHT22;7764;51.430;6.840;2023-03-01T05:36:04;-0.40;99.90
15328;DHT22;7764;51.430;6.840;2023-03-01T05:38:31;-0.40;99.90
15328;DHT22;7764;51.430;6.840;2023-03-01T05:40:58;-0.40;99.90
15328;DHT22;7764;51.430;6.840;2023-03-01T05:43:25;-0.40;99.90
15328;DHT22;7764;51.430;6.840;2023-03-01T05:45:52;-0.40;99.90
15328;DHT22;7764;51.430;6.840;2023-03-01T05:48:19;-0.40;99.90
15328;DHT22;7764;51.430;6.840;2023-03-01T05:50:47;-0.30;99.90
15328;DHT22;7764;51.430;6.840;2023-03-01T05:53:19;-0.30;99.90
15328;DHT22;7764;51.430;6.840;2023-03-01T05:55:47;-0.40;99.90
15328;DHT22;7764;51.430;6.840;2023-03-01T05:58:17;-0.30;99.90
15328;DHT22;7764;51.430;6.840;2023-03-01T06:00:45;-0.30;99.90
15328;DHT22;7764;51.430;6.840;2023-03-01T06:03:14;-0.40;99.90
15328;DHT22;7764;51.430;6.840;2023-03-01T06:05:43;-0.30;99.90
15328;DHT22;7764;51.430;6.840;2023-03-01T06:08:12;-0.30;99.90
15328;DHT22;7764;51.430;6.840;2023-03-01T06:10:39;-0.40;99.90
15328;DHT22;7764;51.430;6.840;2023-03-01T06:13:06;-0.40;99.90
15328;DHT22;7764;51.430;6.840;2023-03-01T06:15:33;-0.40;99.90
15328;DHT22;7764;51.430;6.840;2023-03-01T06:17:59;-0.30;99.90
15328;DHT22;7764;51.430;6.840;2023-03-01T06:20:28;-0.30;99.90
15328;DHT22;7764;51.430;6.840;2023-03-01T06:22:55;-0.30;99.90
15328;DHT22;7764;51.430;6.840;2023-03-01T06:25:25;-0.20;99.90
15328;DHT22;7764;51.430;6.840;2023-03-01T06:27:53;-0.20;99.90
15328;DHT22;7764;51.430;6.840;2023-03-01T06:30:22;-0.30;99.90
15328;DHT22;7764;51.430;6.840;2023-03-01T06:32:49;-0.30;99.90
15328;DHT22;7764;51.430;6.840;2023-03-01T06:35:18;-0.30;99.90
15328;DHT22;7764;51.430;6.840;2023-03-01T06:37:45;-0.30;99.90
15328;DHT22;7764;51.430;6.840;2023-03-01T06:40:13;-0.30;99.90
15328;DHT22;7764;51.430;6.840;2023-03-01T06:42:43;-0.20;99.90
15328;DHT22;7764;51.430;6.840;2023-03-01T06:45:11;0.20;99.90
15328;DHT22;7764;51.430;6.840;2023-03-01T06:47:38;0.50;99.90
15328;DHT22;7764;51.430;6.840;2023-03-01T06:50:05;0.70;99.90
15328;DHT22;7764;51.430;6.840;2023-03-01T06:52:32;0.80;99.90
15328;DHT22;7764;51.430;6.840;2023-03-01T06:54:59;0.70;99.90
15328;DHT22;7764;51.430;6.840;2023-03-01T06:57:26;0.60;99.90
15328;DHT22;7764;51.430;6.840;2023-03-01T06:59:55;0.70;99.90
15328;DHT22;7764;51.430;6.840;2023-03-01T07:02:22;0.90;99.90
15328;DHT22;7764;51.430;6.840;2023-03-01T07:04:49;1.10;99.90
15328;DHT22;7764;51.430;6.840;2023-03-01T07:07:16;1.20;99.90
15328;DHT22;7764;51.430;6.840;2023-03-01T07:09:44;1.30;99.90
15328;DHT22;7764;51.430;6.840;2023-03-01T07:12:11;1.30;99.90
15328;DHT22;7764;51.430;6.840;2023-03-01T07:14:38;1.60;99.90
15328;DHT22;7764;51.430;6.840;2023-03-01T07:17:06;1.70;99.90
15328;DHT22;7764;51.430;6.840;2023-03-01T07:19:33;1.60;99.90
15328;DHT22;7764;51.430;6.840;2023-03-01T07:22:00;1.70;99.90
15328;DHT22;7764;51.430;6.840;2023-03-01T07:24:27;1.80;99.90
15328;DHT22;7764;51.430;6.840;2023-03-01T07:26:54;1.90;99.90
15328;DHT22;7764;51.430;6.840;2023-03-01T07:29:21;2.00;99.90
15328;DHT22;7764;51.430;6.840;2023-03-01T07:31:48;2.10;99.90
15328;DHT22;7764;51.430;6.840;2023-03-01T07:34:16;2.00;99.90
15328;DHT22;7764;51.430;6.840;2023-03-01T07:36:43;2.00;99.90
15328;DHT22;7764;51.430;6.840;2023-03-01T07:39:10;2.00;99.90
15328;DHT22;7764;51.430;6.840;2023-03-01T07:41:38;2.00;99.90
15328;DHT22;7764;51.430;6.840;2023-03-01T07:44:05;2.10;99.90
15328;DHT22;7764;51.430;6.840;2023-03-01T07:46:33;2.10;99.90
15328;DHT22;7764;51.430;6.840;2023-03-01T07:49:00;2.10;99.90
15328;DHT22;7764;51.430;6.840;2023-03-01T07:51:28;1.90;99.90
15328;DHT22;7764;51.430;6.840;2023-03-01T07:53:55;1.90;99.90
15328;DHT22;7764;51.430;6.840;2023-03-01T07:56:21;1.90;99.90
15328;DHT22;7764;51.430;6.840;2023-03-01T07:58:48;1.80;99.90
15328;DHT22;7764;51.430;6.840;2023-03-01T08:01:17;1.80;99.90
15328;DHT22;7764;51.430;6.840;2023-03-01T08:03:44;1.70;99.90
15328;DHT22;7764;51.430;6.840;2023-03-01T08:06:13;1.80;99.90
15328;DHT22;7764;51.430;6.840;2023-03-01T08:08:41;1.90;99.90
15328;DHT22;7764;51.430;6.840;2023-03-01T08:11:10;1.90;99.90
15328;DHT22;7764;51.430;6.840;2023-03-01T08:13:38;2.00;99.90
15328;DHT22;7764;51.430;6.840;2023-03-01T08:16:06;2.00;99.90
15328;DHT22;7764;51.430;6.840;2023-03-01T08:18:34;2.10;99.90
15328;DHT22;7764;51.430;6.840;2023-03-01T08:21:05;2.20;99.90
15328;DHT22;7764;51.430;6.840;2023-03-01T08:23:32;2.10;99.90
15328;DHT22;7764;51.430;6.840;2023-03-01T08:26:06;2.20;99.90
15328;DHT22;7764;51.430;6.840;2023-03-01T08:28:33;2.30;99.90
15328;DHT22;7764;51.430;6.840;2023-03-01T08:31:01;2.40;99.90
15328;DHT22;7764;51.430;6.840;2023-03-01T08:33:28;2.50;99.90
15328;DHT22;7764;51.430;6.840;2023-03-01T08:36:02;2.50;99.90
15328;DHT22;7764;51.430;6.840;2023-03-01T08:38:29;2.50;99.90
15328;DHT22;7764;51.430;6.840;2023-03-01T08:40:59;2.60;99.90
15328;DHT22;7764;51.430;6.840;2023-03-01T08:43:28;2.60;99.90
15328;DHT22;7764;51.430;6.840;2023-03-01T08:45:55;2.70;99.90
15328;DHT22;7764;51.430;6.840;2023-03-01T08:48:22;2.80;99.90
15328;DHT22;7764;51.430;6.840;2023-03-01T08:50:49;2.90;99.90
15328;DHT22;7764;51.430;6.840;2023-03-01T08:53:15;2.90;99.90
15328;DHT22;7764;51.430;6.840;2023-03-01T08:55:42;3.00;99.90
15328;DHT22;7764;51.430;6.840;2023-03-01T08:58:09;3.00;99.90
15328;DHT22;7764;51.430;6.840;2023-03-01T09:00:37;3.10;99.90
15328;DHT22;7764;51.430;6.840;2023-03-01T09:03:05;3.20;99.90
15328;DHT22;7764;51.430;6.840;2023-03-01T09:05:32;3.20;99.90
15328;DHT22;7764;51.430;6.840;2023-03-01T09:07:59;3.30;99.90
15328;DHT22;7764;51.430;6.840;2023-03-01T09:10:26;3.40;99.90
15328;DHT22;7764;51.430;6.840;2023-03-01T09:12:53;3.40;99.90
15328;DHT22;7764;51.430;6.840;2023-03-01T09:15:20;3.50;99.90
15328;DHT22;7764;51.430;6.840;2023-03-01T09:17:48;3.60;99.90
15328;DHT22;7764;51.430;6.840;2023-03-01T09:20:15;3.60;99.90
15328;DHT22;7764;51.430;6.840;2023-03-01T09:22:42;3.60;99.90
15328;DHT22;7764;51.430;6.840;2023-03-01T09:25:09;3.70;99.90
15328;DHT22;7764;51.430;6.840;2023-03-01T09:27:36;3.80;99.90
15328;DHT22;7764;51.430;6.840;2023-03-01T09:30:03;3.90;99.90
15328;DHT22;7764;51.430;6.840;2023-03-01T09:32:30;3.90;99.90
15328;DHT22;7764;51.430;6.840;2023-03-01T09:34:59;3.90;99.90
15328;DHT22;7764;51.430;6.840;2023-03-01T09:37:31;4.00;99.90
15328;DHT22;7764;51.430;6.840;2023-03-01T09:39:58;4.00;99.90
15328;DHT22;7764;51.430;6.840;2023-03-01T09:42:25;4.00;99.90
15328;DHT22;7764;51.430;6.840;2023-03-01T09:44:57;4.00;99.90
15328;DHT22;7764;51.430;6.840;2023-03-01T09:47:28;4.10;99.90
15328;DHT22;7764;51.430;6.840;2023-03-01T09:50:03;4.10;99.90
15328;DHT22;7764;51.430;6.840;2023-03-01T09:52:37;4.20;99.90
15328;DHT22;7764;51.430;6.840;2023-03-01T09:55:10;4.30;99.90
15328;DHT22;7764;51.430;6.840;2023-03-01T09:57:43;4.40;99.90
15328;DHT22;7764;51.430;6.840;2023-03-01T10:00:21;4.30;99.90
15328;DHT22;7764;51.430;6.840;2023-03-01T10:02:54;4.40;99.90
15328;DHT22;7764;51.430;6.840;2023-03-01T10:05:35;4.60;99.90
15328;DHT22;7764;51.430;6.840;2023-03-01T10:08:25;4.70;99.90
15328;DHT22;7764;51.430;6.840;2023-03-01T10:10:55;4.70;99.90
15328;DHT22;7764;51.430;6.840;2023-03-01T10:13:25;4.80;99.90
15328;DHT22;7764;51.430;6.840;2023-03-01T10:15:55;4.80;99.90
15328;DHT22;7764;51.430;6.840;2023-03-01T10:18:25;4.90;99.90
15328;DHT22;7764;51.430;6.840;2023-03-01T10:20:56;4.90;99.90
15328;DHT22;7764;51.430;6.840;2023-03-01T10:23:25;5.00;99.90
15328;DHT22;7764;51.430;6.840;2023-03-01T10:26:12;5.10;99.90
15328;DHT22;7764;51.430;6.840;2023-03-01T10:28:48;5.10;99.90
15328;DHT22;7764;51.430;6.840;2023-03-01T10:31:20;5.20;99.90
15328;DHT22;7764;51.430;6.840;2023-03-01T10:33:53;5.20;99.90
15328;DHT22;7764;51.430;6.840;2023-03-01T10:36:23;5.10;99.90
15328;DHT22;7764;51.430;6.840;2023-03-01T10:38:53;5.20;99.90
15328;DHT22;7764;51.430;6.840;2023-03-01T10:41:21;5.20;99.90
15328;DHT22;7764;51.430;6.840;2023-03-01T10:43:51;5.30;99.90
15328;DHT22;7764;51.430;6.840;2023-03-01T10:46:26;5.30;99.90
15328;DHT22;7764;51.430;6.840;2023-03-01T10:49:10;5.30;99.70
15328;DHT22;7764;51.430;6.840;2023-03-01T10:51:40;5.20;99.10
15328;DHT22;7764;51.430;6.840;2023-03-01T10:54:16;5.40;98.80
15328;DHT22;7764;51.430;6.840;2023-03-01T10:56:49;5.30;97.80
15328;DHT22;7764;51.430;6.840;2023-03-01T10:59:24;5.50;99.00
15328;DHT22;7764;51.430;6.840;2023-03-01T11:02:14;5.50;98.50
15328;DHT22;7764;51.430;6.840;2023-03-01T11:04:57;5.60;97.70
15328;DHT22;7764;51.430;6.840;2023-03-01T11:07:25;5.70;96.80
15328;DHT22;7764;51.430;6.840;2023-03-01T11:09:52;5.80;97.00
15328;DHT22;7764;51.430;6.840;2023-03-01T11:12:20;5.70;96.60
15328;DHT22;7764;51.430;6.840;2023-03-01T11:14:49;5.80;97.50
15328;DHT22;7764;51.430;6.840;2023-03-01T11:17:21;5.80;95.00
15328;DHT22;7764;51.430;6.840;2023-03-01T11:20:01;5.70;94.60
15328;DHT22;7764;51.430;6.840;2023-03-01T11:22:31;5.70;94.90
15328;DHT22;7764;51.430;6.840;2023-03-01T11:24:59;5.80;94.40
15328;DHT22;7764;51.430;6.840;2023-03-01T11:27:29;5.90;94.30
15328;DHT22;7764;51.430;6.840;2023-03-01T11:30:02;5.90;94.60
15328;DHT22;7764;51.430;6.840;2023-03-01T11:32:36;6.00;93.90
15328;DHT22;7764;51.430;6.840;2023-03-01T11:35:10;5.90;93.40
15328;DHT22;7764;51.430;6.840;2023-03-01T11:37:46;6.00;93.90
15328;DHT22;7764;51.430;6.840;2023-03-01T11:40:23;6.00;93.00
15328;DHT22;7764;51.430;6.840;2023-03-01T11:43:01;6.00;92.50
15328;DHT22;7764;51.430;6.840;2023-03-01T11:45:36;6.00;92.70
15328;DHT22;7764;51.430;6.840;2023-03-01T11:48:23;6.00;92.70
15328;DHT22;7764;51.430;6.840;2023-03-01T11:50:54;6.10;93.40
15328;DHT22;7764;51.430;6.840;2023-03-01T11:53:39;6.20;93.20
15328;DHT22;7764;51.430;6.840;2023-03-01T11:56:17;6.20;93.30
15328;DHT22;7764;51.430;6.840;2023-03-01T12:01:49;6.30;92.50
15328;DHT22;7764;51.430;6.840;2023-03-01T12:04:42;6.40;93.30
15328;DHT22;7764;51.430;6.840;2023-03-01T12:07:19;6.30;91.90
15328;DHT22;7764;51.430;6.840;2023-03-01T12:10:06;6.20;91.50
15328;DHT22;7764;51.430;6.840;2023-03-01T12:12:53;6.20;91.50
15328;DHT22;7764;51.430;6.840;2023-03-01T12:15:47;6.20;91.70
15328;DHT22;7764;51.430;6.840;2023-03-01T12:18:45;6.30;91.80
15328;DHT22;7764;51.430;6.840;2023-03-01T12:21:24;6.30;90.20
15328;DHT22;7764;51.430;6.840;2023-03-01T12:24:07;6.40;90.50
15328;DHT22;7764;51.430;6.840;2023-03-01T12:26:43;6.40;90.40
15328;DHT22;7764;51.430;6.840;2023-03-01T12:29:24;6.40;90.60
15328;DHT22;7764;51.430;6.840;2023-03-01T12:32:15;6.40;89.80
15328;DHT22;7764;51.430;6.840;2023-03-01T12:35:11;6.40;89.80
15328;DHT22;7764;51.430;6.840;2023-03-01T12:37:53;6.30;90.40
15328;DHT22;7764;51.430;6.840;2023-03-01T12:40:35;6.50;90.60
15328;DHT22;7764;51.430;6.840;2023-03-01T12:43:13;6.50;89.70
15328;DHT22;7764;51.430;6.840;2023-03-01T12:45:49;6.50;90.30
15328;DHT22;7764;51.430;6.840;2023-03-01T12:48:31;6.60;90.10
15328;DHT22;7764;51.430;6.840;2023-03-01T12:51:03;6.70;90.50
15328;DHT22;7764;51.430;6.840;2023-03-01T12:53:34;6.60;90.90
15328;DHT22;7764;51.430;6.840;2023-03-01T12:56:06;6.70;89.50
15328;DHT22;7764;51.430;6.840;2023-03-01T12:58:41;6.70;89.10
15328;DHT22;7764;51.430;6.840;2023-03-01T13:01:22;6.70;90.00
15328;DHT22;7764;51.430;6.840;2023-03-01T13:04:18;6.80;90.30
15328;DHT22;7764;51.430;6.840;2023-03-01T13:06:55;6.80;90.20
15328;DHT22;7764;51.430;6.840;2023-03-01T13:09:30;6.80;88.70
15328;DHT22;7764;51.430;6.840;2023-03-01T13:11:59;6.80;87.80
15328;DHT22;7764;51.430;6.840;2023-03-01T13:14:46;6.90;86.40
15328;DHT22;7764;51.430;6.840;2023-03-01T13:17:39;6.90;86.70
15328;DHT22;7764;51.430;6.840;2023-03-01T13:20:13;6.90;86.60
15328;DHT22;7764;51.430;6.840;2023-03-01T13:22:41;7.00;87.60
15328;DHT22;7764;51.430;6.840;2023-03-01T13:25:17;7.00;86.60
15328;DHT22;7764;51.430;6.840;2023-03-01T13:27:44;7.00;86.40
15328;DHT22;7764;51.430;6.840;2023-03-01T13:30:41;7.00;87.00
15328;DHT22;7764;51.430;6.840;2023-03-01T13:36:09;7.20;85.90
15328;DHT22;7764;51.430;6.840;2023-03-01T13:38:46;7.20;85.50
15328;DHT22;7764;51.430;6.840;2023-03-01T13:41:14;7.20;85.60
15328;DHT22;7764;51.430;6.840;2023-03-01T13:43:42;7.10;85.40
15328;DHT22;7764;51.430;6.840;2023-03-01T13:46:15;7.10;86.70
15328;DHT22;7764;51.430;6.840;2023-03-01T13:48:45;7.10;86.50
15328;DHT22;7764;51.430;6.840;2023-03-01T13:51:12;7.10;87.50
15328;DHT22;7764;51.430;6.840;2023-03-01T13:53:42;7.10;88.00
15328;DHT22;7764;51.430;6.840;2023-03-01T13:56:13;7.10;89.10
15328;DHT22;7764;51.430;6.840;2023-03-01T13:58:48;7.10;88.50
15328;DHT22;7764;51.430;6.840;2023-03-01T14:01:24;7.10;88.60
15328;DHT22;7764;51.430;6.840;2023-03-01T14:03:52;7.10;88.40
15328;DHT22;7764;51.430;6.840;2023-03-01T14:06:21;7.10;88.50
15328;DHT22;7764;51.430;6.840;2023-03-01T14:08:50;7.10;89.00
15328;DHT22;7764;51.430;6.840;2023-03-01T14:14:37;7.10;88.10
15328;DHT22;7764;51.430;6.840;2023-03-01T14:17:30;7.20;86.90
15328;DHT22;7764;51.430;6.840;2023-03-01T14:20:10;7.20;87.40
15328;DHT22;7764;51.430;6.840;2023-03-01T14:22:41;7.20;87.30
15328;DHT22;7764;51.430;6.840;2023-03-01T14:25:19;7.60;87.40
15328;DHT22;7764;51.430;6.840;2023-03-01T14:27:54;7.40;86.30
15328;DHT22;7764;51.430;6.840;2023-03-01T14:30:24;7.40;87.10
15328;DHT22;7764;51.430;6.840;2023-03-01T14:32:57;7.30;85.90
15328;DHT22;7764;51.430;6.840;2023-03-01T14:35:26;7.30;85.00
15328;DHT22;7764;51.430;6.840;2023-03-01T14:37:53;7.30;85.20
15328;DHT22;7764;51.430;6.840;2023-03-01T14:40:23;7.30;86.10
15328;DHT22;7764;51.430;6.840;2023-03-01T14:42:51;7.30;86.80
15328;DHT22;7764;51.430;6.840;2023-03-01T14:45:19;7.30;86.70
15328;DHT22;7764;51.430;6.840;2023-03-01T14:47:47;7.30;85.90
15328;DHT22;7764;51.430;6.840;2023-03-01T14:50:26;7.30;85.80
15328;DHT22;7764;51.430;6.840;2023-03-01T14:52:54;7.30;85.20
15328;DHT22;7764;51.430;6.840;2023-03-01T14:55:25;7.40;86.90
15328;DHT22;7764;51.430;6.840;2023-03-01T14:57:53;7.40;86.70
15328;DHT22;7764;51.430;6.840;2023-03-01T15:00:22;7.40;86.40
15328;DHT22;7764;51.430;6.840;2023-03-01T15:02:51;7.30;87.40
15328;DHT22;7764;51.430;6.840;2023-03-01T15:05:24;7.30;89.50
15328;DHT22;7764;51.430;6.840;2023-03-01T15:07:52;7.30;89.50
15328;DHT22;7764;51.430;6.840;2023-03-01T15:10:21;7.30;89.90
15328;DHT22;7764;51.430;6.840;2023-03-01T15:12:48;7.30;90.40
15328;DHT22;7764;51.430;6.840;2023-03-01T15:15:33;7.30;90.50
15328;DHT22;7764;51.430;6.840;2023-03-01T15:18:02;7.30;90.00
15328;DHT22;7764;51.430;6.840;2023-03-01T15:20:32;7.30;88.80
15328;DHT22;7764;51.430;6.840;2023-03-01T15:23:02;7.30;89.80
15328;DHT22;7764;51.430;6.840;2023-03-01T15:25:30;7.20;90.00
15328;DHT22;7764;51.430;6.840;2023-03-01T15:27:59;7.20;90.20
15328;DHT22;7764;51.430;6.840;2023-03-01T15:30:29;7.20;90.10
15328;DHT22;7764;51.430;6.840;2023-03-01T15:33:34;7.20;89.80
15328;DHT22;7764;51.430;6.840;2023-03-01T15:36:04;7.20;90.40
15328;DHT22;7764;51.430;6.840;2023-03-01T15:38:53;7.20;89.80
15328;DHT22;7764;51.430;6.840;2023-03-01T15:41:23;7.10;89.30
15328;DHT22;7764;51.430;6.840;2023-03-01T15:43:51;7.10;90.10
15328;DHT22;7764;51.430;6.840;2023-03-01T15:46:28;7.10;90.00
15328;DHT22;7764;51.430;6.840;2023-03-01T15:48:59;7.10;90.10
15328;DHT22;7764;51.430;6.840;2023-03-01T15:51:33;7.10;90.00
15328;DHT22;7764;51.430;6.840;2023-03-01T15:54:03;7.00;89.50
15328;DHT22;7764;51.430;6.840;2023-03-01T15:56:30;7.00;90.10
15328;DHT22;7764;51.430;6.840;2023-03-01T15:58:58;7.00;90.60
15328;DHT22;7764;51.430;6.840;2023-03-01T16:01:26;7.00;90.50
15328;DHT22;7764;51.430;6.840;2023-03-01T16:03:53;7.00;90.30
15328;DHT22;7764;51.430;6.840;2023-03-01T16:06:20;7.00;90.50
15328;DHT22;7764;51.430;6.840;2023-03-01T16:08:48;7.00;89.80
15328;DHT22;7764;51.430;6.840;2023-03-01T16:11:17;7.00;89.40
15328;DHT22;7764;51.430;6.840;2023-03-01T16:13:44;7.00;90.00
15328;DHT22;7764;51.430;6.840;2023-03-01T16:16:13;6.90;90.10
15328;DHT22;7764;51.430;6.840;2023-03-01T16:18:42;6.90;89.30
15328;DHT22;7764;51.430;6.840;2023-03-01T16:21:20;6.90;89.20
15328;DHT22;7764;51.430;6.840;2023-03-01T16:23:49;6.90;89.40
15328;DHT22;7764;51.430;6.840;2023-03-01T16:26:16;6.90;89.20
15328;DHT22;7764;51.430;6.840;2023-03-01T16:28:44;6.90;89.10
15328;DHT22;7764;51.430;6.840;2023-03-01T16:31:16;6.80;89.90